createdAt,value
2018-05-10T00:00:41.799Z,69.14
2018-05-10T00:02:18.931Z,69.12
2018-05-10T00:03:56.589Z,69.09
2018-05-10T00:05:34.539Z,69.26
2018-05-10T00:07:12.067Z,69.27
2018-05-10T00:08:49.509Z,69.12
2018-05-10T00:10:25.608Z,69.63
2018-05-10T00:12:05.115Z,69.78
2018-05-10T00:13:42.554Z,69.71
2018-05-10T00:15:18.423Z,69.51
2018-05-10T00:16:56.560Z,69.41
2018-05-10T00:18:35.018Z,69.45
2018-05-10T00:20:12.608Z,69.43
2018-05-10T00:21:49.649Z,69.61
2018-05-10T00:23:26.517Z,69.75
2018-05-10T00:25:03.949Z,69.90
2018-05-10T00:26:41.633Z,69.93
2018-05-10T00:28:21.558Z,69.73
2018-05-10T00:29:58.790Z,69.36
2018-05-10T00:31:37.854Z,69.33
2018-05-10T00:33:16.010Z,69.47
2018-05-10T00:34:53.838Z,69.57
2018-05-10T00:36:32.589Z,69.40
2018-05-10T00:38:10.337Z,69.55
2018-05-10T00:39:48.221Z,69.60
2018-05-10T00:41:27.858Z,69.49
2018-05-10T00:43:02.930Z,69.48
2018-05-10T00:44:41.536Z,69.62
2018-05-10T01:03:59.675Z,70.25
2018-05-10T01:05:37.745Z,70.55
2018-05-10T01:07:15.859Z,70.65
2018-05-10T01:08:53.432Z,70.85
2018-05-10T01:10:32.022Z,70.86
2018-05-10T01:12:08.824Z,70.89
2018-05-10T01:13:45.684Z,70.66
2018-05-10T01:15:23.940Z,70.57
2018-05-10T01:17:00.274Z,70.63
2018-05-10T01:18:37.755Z,70.57
2018-05-10T01:20:15.654Z,70.90
2018-05-10T01:21:54.582Z,71.11
2018-05-10T01:23:31.906Z,71.15
2018-05-10T01:25:09.142Z,71.05
2018-05-10T01:44:26.618Z,71.88
2018-05-10T01:46:04.822Z,72.03
2018-05-10T02:05:23.262Z,72.74
2018-05-10T02:07:01.153Z,72.73
2018-05-10T02:08:38.783Z,72.79
2018-05-10T02:10:17.736Z,72.89
2018-05-10T02:11:54.140Z,72.78
2018-05-10T02:13:30.660Z,72.82
2018-05-10T02:15:07.567Z,72.87
2018-05-10T02:16:45.744Z,72.82
2018-05-10T02:18:23.353Z,72.72
2018-05-10T02:20:02.703Z,72.86
2018-05-10T02:21:39.705Z,72.94
2018-05-10T02:23:18.084Z,72.98
2018-05-10T02:24:54.832Z,72.78
2018-05-10T02:26:32.772Z,72.91
2018-05-10T02:28:10.073Z,73.03
2018-05-10T02:29:47.438Z,73.09
2018-05-10T02:31:26.326Z,73.00
2018-05-10T02:33:03.262Z,73.07
2018-05-10T02:34:39.842Z,73.19
2018-05-10T02:36:18.433Z,73.29
2018-05-10T02:37:54.677Z,73.34
2018-05-10T02:39:33.764Z,73.29
2018-05-10T02:41:15.818Z,72.94
2018-05-10T02:42:56.304Z,72.93
2018-05-10T03:02:14.729Z,73.75
2018-05-10T03:03:52.397Z,73.89
2018-05-10T03:05:28.900Z,73.97
2018-05-10T03:07:07.216Z,74.04
2018-05-10T03:08:45.859Z,74.14
2018-05-10T03:10:25.496Z,74.08
2018-05-10T03:12:01.762Z,74.18
2018-05-10T03:13:39.578Z,74.35
2018-05-10T03:15:17.209Z,74.44
2018-05-10T03:16:54.245Z,74.46
2018-05-10T03:18:31.692Z,74.47
2018-05-10T03:20:09.517Z,74.54
2018-05-10T03:21:47.829Z,74.36
2018-05-10T03:23:27.408Z,74.31
2018-05-10T03:25:05.407Z,74.12
2018-05-10T03:26:41.712Z,74.23
2018-05-10T03:46:04.184Z,75.04
2018-05-10T03:47:41.159Z,75.05
2018-05-10T03:49:16.791Z,74.88
2018-05-10T03:50:54.906Z,75.04
2018-05-10T03:52:32.567Z,75.06
2018-05-10T03:54:10.336Z,74.90
2018-05-10T03:55:47.771Z,74.72
2018-05-10T03:57:24.478Z,74.57
2018-05-10T03:59:03.202Z,74.24
2018-05-10T04:00:42.928Z,74.17
2018-05-10T04:02:20.038Z,74.20
2018-05-10T04:04:29.147Z,74.23
2018-05-10T04:06:23.789Z,74.23
2018-05-10T04:08:16.424Z,74.06
2018-05-10T04:10:09.576Z,73.84
2018-05-10T04:11:46.935Z,73.71
2018-05-10T04:13:23.592Z,73.57
2018-05-10T04:15:00.845Z,73.37
2018-05-10T04:16:37.522Z,72.95
2018-05-10T04:18:16.163Z,72.15
2018-05-10T04:37:34.768Z,68.70
2018-05-10T04:39:12.792Z,68.50
2018-05-10T04:40:49.579Z,68.34
2018-05-10T04:42:26.733Z,67.92
2018-05-10T04:44:04.577Z,67.49
2018-05-10T04:45:43.026Z,67.09
2018-05-10T04:47:21.217Z,66.78
2018-05-10T04:48:58.869Z,66.56
2018-05-10T04:50:35.537Z,66.46
2018-05-10T04:52:11.744Z,65.91
2018-05-10T04:53:48.420Z,66.32
2018-05-10T04:55:25.812Z,66.02
2018-05-10T04:57:03.888Z,65.94
2018-05-10T04:58:42.317Z,66.03
2018-05-10T05:00:19.008Z,65.77
2018-05-10T05:02:00.430Z,65.43
2018-05-10T05:03:37.073Z,65.47
2018-05-10T05:05:14.089Z,65.67
2018-05-10T05:06:54.798Z,65.47
2018-05-10T05:08:31.422Z,65.27
2018-05-10T05:10:09.625Z,65.21
2018-05-10T05:11:46.815Z,65.85
2018-05-10T05:13:25.034Z,66.21
2018-05-10T05:32:44.257Z,67.26
2018-05-10T05:34:22.874Z,67.26
2018-05-10T05:36:00.210Z,67.29
2018-05-10T05:37:38.826Z,67.34
2018-05-10T05:39:17.985Z,67.52
2018-05-10T05:40:56.944Z,67.24
2018-05-10T05:42:34.028Z,67.01
2018-05-10T05:44:10.965Z,66.71
2018-05-10T05:45:48.412Z,66.37
2018-05-10T05:47:26.394Z,66.16
2018-05-10T05:49:02.780Z,66.18
2018-05-10T05:50:40.262Z,66.25
2018-05-10T05:52:20.525Z,66.12
2018-05-10T05:53:58.058Z,66.17
2018-05-10T05:55:34.950Z,65.87
2018-05-10T05:57:12.617Z,65.86
2018-05-10T05:58:52.056Z,65.67
2018-05-10T06:00:27.796Z,65.63
2018-05-10T06:20:05.353Z,65.02
2018-05-10T06:21:47.091Z,64.68
2018-05-10T06:23:25.721Z,64.53
2018-05-10T06:25:06.717Z,64.43
2018-05-10T06:26:45.899Z,64.08
2018-05-10T06:28:24.030Z,63.91
2018-05-10T06:31:50.543Z,63.51
2018-05-10T06:54:26.961Z,62.87
2018-05-10T06:56:07.528Z,62.60
2018-05-10T06:57:45.397Z,62.49
2018-05-10T06:59:22.154Z,62.74
2018-05-10T07:00:58.963Z,62.70
2018-05-10T07:02:39.756Z,62.31
2018-05-10T07:04:16.810Z,61.91
2018-05-10T07:05:55.390Z,62.00
2018-05-10T07:07:34.904Z,61.86
2018-05-10T07:09:15.731Z,61.62
2018-05-10T07:10:52.384Z,61.78
2018-05-10T07:12:32.456Z,61.26
2018-05-10T07:14:09.746Z,61.06
2018-05-10T07:15:49.173Z,60.73
2018-05-10T07:17:27.458Z,60.77
2018-05-10T07:19:06.014Z,60.77
2018-05-10T07:20:45.608Z,60.74
2018-05-10T07:22:22.895Z,60.40
2018-05-10T07:24:00.142Z,60.47
2018-05-10T07:27:19.518Z,59.83
2018-05-10T07:28:59.783Z,59.71
2018-05-10T07:30:36.376Z,59.61
2018-05-10T07:32:12.543Z,58.83
2018-05-10T07:33:51.588Z,59.07
2018-05-10T07:35:46.729Z,58.74
2018-05-10T07:37:27.169Z,58.39
2018-05-10T07:39:05.896Z,58.36
2018-05-10T07:40:43.942Z,58.69
2018-05-10T07:42:21.566Z,58.65
2018-05-10T07:43:59.683Z,58.31
2018-05-10T07:45:37.683Z,58.67
2018-05-10T07:47:15.107Z,58.21
2018-05-10T07:48:53.081Z,58.24
2018-05-10T07:50:31.619Z,58.37
2018-05-10T07:52:08.639Z,58.17
2018-05-10T07:53:45.811Z,58.34
2018-05-10T07:55:22.862Z,58.41
2018-05-10T07:56:58.826Z,58.03
2018-05-10T07:58:36.114Z,58.35
2018-05-10T08:00:12.309Z,58.04
2018-05-10T08:01:48.058Z,57.78
2018-05-10T08:03:26.033Z,57.56
2018-05-10T08:05:03.719Z,57.89
2018-05-10T08:07:02.016Z,57.92
2018-05-10T08:08:51.643Z,57.27
2018-05-10T08:10:33.929Z,57.62
2018-05-10T08:12:12.236Z,57.64
2018-05-10T08:13:49.853Z,57.32
2018-05-10T08:15:27.344Z,57.07
2018-05-10T08:17:05.973Z,56.81
2018-05-10T08:18:47.912Z,56.29
2018-05-10T08:20:28.733Z,56.42
2018-05-10T08:22:09.778Z,55.85
2018-05-10T08:23:51.664Z,55.96
2018-05-10T08:25:30.175Z,55.85
2018-05-10T08:27:07.526Z,55.54
2018-05-10T08:28:44.853Z,55.06
2018-05-10T08:30:23.728Z,55.22
2018-05-10T08:32:02.772Z,55.52
2018-05-10T08:33:44.987Z,55.82
2018-05-10T08:35:22.102Z,55.17
2018-05-10T08:37:01.134Z,54.47
2018-05-10T08:38:37.944Z,54.33
2018-05-10T08:40:14.739Z,54.31
2018-05-10T08:41:55.588Z,53.18
2018-05-10T08:43:34.422Z,52.69
2018-05-10T08:45:14.416Z,52.38
2018-05-10T08:46:51.183Z,51.84
2018-05-10T08:48:28.463Z,52.08
2018-05-10T08:50:05.557Z,51.64
2018-05-10T08:51:43.440Z,50.91
2018-05-10T08:53:20.799Z,50.59
2018-05-10T08:54:58.333Z,50.50
2018-05-10T08:56:36.747Z,50.75
2018-05-10T08:58:15.507Z,50.08
2018-05-10T09:00:01.332Z,50.14
2018-05-10T09:01:39.056Z,48.12
2018-05-10T09:03:17.892Z,48.34
2018-05-10T09:04:56.333Z,49.32
2018-05-10T09:06:33.728Z,47.48
2018-05-10T09:08:11.354Z,47.47
2018-05-10T09:09:48.485Z,47.64
2018-05-10T09:11:26.341Z,47.99
2018-05-10T09:13:03.277Z,44.35
2018-05-10T09:14:43.700Z,42.30
2018-05-10T09:16:21.601Z,42.22
2018-05-10T09:18:02.109Z,42.31
2018-05-10T09:19:39.801Z,44.05
2018-05-10T09:21:18.757Z,43.86
2018-05-10T09:23:00.346Z,43.37
2018-05-10T09:24:37.497Z,42.86
2018-05-10T09:26:17.048Z,42.54
2018-05-10T09:31:18.733Z,43.28
2018-05-10T09:32:59.262Z,41.51
2018-05-10T09:39:04.905Z,37.74
2018-05-10T09:40:47.138Z,38.14
2018-05-10T09:42:31.723Z,37.59
2018-05-10T09:44:14.120Z,37.81
2018-05-10T09:45:55.867Z,36.35
2018-05-10T09:47:39.279Z,36.18
2018-05-10T09:49:36.235Z,36.80
2018-05-10T09:51:14.082Z,36.66
2018-05-10T09:52:49.991Z,36.83
2018-05-10T09:54:25.838Z,37.46
2018-05-10T09:56:00.970Z,37.09
2018-05-10T09:57:36.999Z,37.15
2018-05-10T09:59:12.794Z,36.37
2018-05-10T10:00:52.546Z,36.60
2018-05-10T10:02:28.499Z,34.80
2018-05-10T10:04:03.717Z,34.46
2018-05-10T10:05:38.854Z,34.13
2018-05-10T10:07:14.009Z,33.90
2018-05-10T10:08:49.143Z,32.65
2018-05-10T10:10:25.099Z,31.83
2018-05-10T10:12:00.204Z,32.30
2018-05-10T10:13:36.827Z,31.73
2018-05-10T10:15:12.945Z,32.83
2018-05-10T10:16:49.013Z,32.78
2018-05-10T10:18:24.807Z,32.57
2018-05-10T10:20:00.092Z,31.94
2018-05-10T10:21:49.985Z,33.64
2018-05-10T10:23:25.099Z,31.32
2018-05-10T10:25:00.226Z,33.72
2018-05-10T10:26:35.476Z,33.86
2018-05-10T10:28:10.594Z,32.09
2018-05-10T10:29:45.929Z,32.38
2018-05-10T10:31:22.657Z,32.53
2018-05-10T10:32:57.774Z,32.22
2018-05-10T10:34:33.295Z,32.49
2018-05-10T10:36:08.289Z,33.82
2018-05-10T10:37:43.391Z,31.31
2018-05-10T10:39:18.472Z,30.73
2018-05-10T10:40:55.382Z,31.43
2018-05-10T10:42:31.239Z,31.91
2018-05-10T10:44:07.393Z,31.12
2018-05-10T10:45:43.364Z,30.72
2018-05-10T10:47:19.376Z,30.77
2018-05-10T10:50:48.643Z,30.07
2018-05-10T10:52:23.694Z,30.23
2018-05-10T10:53:59.241Z,30.46
2018-05-10T10:55:39.157Z,30.22
2018-05-10T10:57:15.157Z,28.44
2018-05-10T10:58:52.272Z,28.46
2018-05-10T11:00:30.534Z,27.20
2018-05-10T11:02:06.175Z,26.56
2018-05-10T11:03:42.204Z,26.08
2018-05-10T11:05:21.728Z,28.88
2018-05-10T11:06:57.246Z,28.36
2018-05-10T11:08:32.475Z,29.71
2018-05-10T11:10:10.614Z,29.20
2018-05-10T11:11:46.790Z,29.79
2018-05-10T11:13:22.965Z,29.79
2018-05-10T11:14:58.390Z,29.04
2018-05-10T11:16:33.758Z,28.79
2018-05-10T11:18:11.119Z,28.12
2018-05-10T11:19:46.195Z,28.77
2018-05-10T11:21:21.695Z,28.54
2018-05-10T11:22:57.929Z,28.51
2018-05-10T11:24:33.270Z,28.23
2018-05-10T11:26:08.455Z,28.64
2018-05-10T11:27:46.600Z,28.29
2018-05-10T11:29:21.705Z,28.84
2018-05-10T11:30:57.771Z,28.64
2018-05-10T11:32:33.228Z,27.38
2018-05-10T11:34:09.181Z,27.31
2018-05-10T11:35:44.545Z,26.75
2018-05-10T11:37:20.036Z,27.19
2018-05-10T11:38:55.625Z,27.97
2018-05-10T11:40:31.239Z,27.71
2018-05-10T11:42:07.249Z,28.02
2018-05-10T11:43:42.384Z,28.53
2018-05-10T11:45:18.218Z,28.68
2018-05-10T11:46:53.301Z,28.74
2018-05-10T11:48:29.619Z,28.63
2018-05-10T11:50:04.855Z,28.08
2018-05-10T11:51:40.073Z,28.27
2018-05-10T11:53:15.846Z,28.60
2018-05-10T11:54:52.971Z,28.44
2018-05-10T11:56:28.686Z,28.67
2018-05-10T11:58:03.996Z,28.34
2018-05-10T11:59:40.394Z,28.81
2018-05-10T12:01:15.946Z,28.75
2018-05-10T12:02:52.030Z,29.11
2018-05-10T12:04:31.320Z,29.20
2018-05-10T12:06:10.276Z,29.03
2018-05-10T12:07:54.134Z,29.31
2018-05-10T12:09:30.469Z,29.43
2018-05-10T12:11:05.827Z,28.62
2018-05-10T12:12:40.921Z,28.70
2018-05-10T12:14:16.176Z,28.44
2018-05-10T12:15:51.248Z,28.73
2018-05-10T12:17:26.329Z,28.64
2018-05-10T12:19:03.157Z,29.32
2018-05-10T12:20:38.462Z,30.21
2018-05-10T12:22:13.525Z,30.57
2018-05-10T12:23:50.451Z,30.96
2018-05-10T12:25:28.252Z,31.40
2018-05-10T12:27:03.256Z,31.79
2018-05-10T12:28:38.292Z,32.44
2018-05-10T12:30:14.125Z,32.37
2018-05-10T12:31:49.191Z,32.28
2018-05-10T12:33:24.248Z,32.45
2018-05-10T12:34:59.344Z,32.60
2018-05-10T12:36:34.463Z,32.49
2018-05-10T12:38:10.338Z,32.62
2018-05-10T12:39:45.388Z,32.28
2018-05-10T12:41:20.455Z,31.63
2018-05-10T12:42:57.386Z,31.61
2018-05-10T12:44:32.438Z,31.33
2018-05-10T12:46:07.527Z,31.26
2018-05-10T12:47:42.577Z,31.44
2018-05-10T12:49:18.422Z,31.22
2018-05-10T12:50:53.604Z,31.46
2018-05-10T12:52:28.644Z,30.85
2018-05-10T12:54:03.738Z,30.88
2018-05-10T12:55:38.862Z,30.61
2018-05-10T12:57:14.675Z,30.85
2018-05-10T12:58:49.729Z,31.52
2018-05-10T13:00:24.831Z,31.09
2018-05-10T13:01:59.920Z,30.99
2018-05-10T13:03:34.962Z,31.12
2018-05-10T13:05:10.009Z,30.49
2018-05-10T13:06:45.109Z,30.79
2018-05-10T13:08:20.213Z,30.52
2018-05-10T13:09:55.493Z,30.80
2018-05-10T13:11:31.331Z,31.25
2018-05-10T13:13:06.433Z,30.66
2018-05-10T13:14:41.575Z,30.66
2018-05-10T13:16:16.733Z,30.77
2018-05-10T13:17:51.826Z,30.96
2018-05-10T13:19:27.898Z,31.00
2018-05-10T13:21:02.908Z,30.83
2018-05-10T13:22:37.970Z,31.53
2018-05-10T13:24:13.073Z,30.94
2018-05-10T13:25:48.142Z,30.81
2018-05-10T13:27:23.294Z,30.24
2018-05-10T13:28:58.312Z,30.48
2018-05-10T13:30:33.438Z,29.75
2018-05-10T13:32:08.476Z,29.85
2018-05-10T13:33:43.557Z,29.92
2018-05-10T13:35:18.660Z,30.10
2018-05-10T13:36:53.872Z,29.73
2018-05-10T13:38:29.044Z,29.50
2018-05-10T13:40:04.425Z,30.20
2018-05-10T13:41:41.255Z,31.04
2018-05-10T13:43:18.725Z,30.55
2018-05-10T13:44:55.123Z,30.51
2018-05-10T13:46:30.693Z,30.72
2018-05-10T13:48:06.152Z,30.79
2018-05-10T13:49:41.878Z,30.22
2018-05-10T13:51:16.956Z,30.54
2018-05-10T13:52:52.878Z,30.76
2018-05-10T13:54:28.710Z,30.35
2018-05-10T13:56:03.763Z,30.48
2018-05-10T13:57:39.136Z,31.02
2018-05-10T13:59:15.192Z,31.15
2018-05-10T14:00:51.184Z,31.04
2018-05-10T14:02:26.415Z,31.09
2018-05-10T14:04:01.477Z,31.24
2018-05-10T14:05:36.574Z,31.33
2018-05-10T14:07:11.657Z,31.17
2018-05-10T14:08:46.697Z,31.56
2018-05-10T14:10:21.974Z,31.74
2018-05-10T14:11:57.067Z,32.45
2018-05-10T14:13:32.898Z,33.07
2018-05-10T14:15:07.985Z,33.32
2018-05-10T14:16:43.891Z,33.20
2018-05-10T14:18:18.976Z,33.55
2018-05-10T14:19:54.089Z,33.61
2018-05-10T14:21:29.180Z,34.15
2018-05-10T14:23:04.239Z,34.28
2018-05-10T14:24:39.451Z,34.01
2018-05-10T14:26:15.081Z,34.47
2018-05-10T14:27:50.379Z,35.65
2018-05-10T14:29:25.594Z,35.62
2018-05-10T14:31:00.661Z,35.20
2018-05-10T14:32:35.776Z,35.35
2018-05-10T14:34:11.662Z,35.92
2018-05-10T14:35:46.726Z,35.88
2018-05-10T14:37:21.814Z,35.80
2018-05-10T14:38:57.429Z,36.05
2018-05-10T14:40:32.536Z,36.54
2018-05-10T14:42:07.593Z,35.88
2018-05-10T14:43:43.454Z,35.31
2018-05-10T14:45:18.532Z,35.73
2018-05-10T14:46:53.694Z,35.40
2018-05-10T14:48:28.759Z,35.63
2018-05-10T14:50:03.822Z,35.38
2018-05-10T14:51:38.920Z,35.18
2018-05-10T14:53:14.329Z,35.26
2018-05-10T14:54:49.412Z,35.42
2018-05-10T14:56:24.515Z,35.13
2018-05-10T14:57:59.951Z,35.09
2018-05-10T14:59:35.822Z,35.46
2018-05-10T15:01:11.841Z,35.19
2018-05-10T15:02:47.311Z,35.10
2018-05-10T15:04:23.168Z,34.82
2018-05-10T15:05:58.257Z,35.41
2018-05-10T15:07:33.321Z,35.10
2018-05-10T15:09:08.444Z,34.21
2018-05-10T15:10:43.512Z,34.68
2018-05-10T15:12:18.615Z,34.64
2018-05-10T15:13:53.831Z,34.71
2018-05-10T15:15:28.881Z,34.79
2018-05-10T15:17:03.931Z,35.50
2018-05-10T15:18:39.020Z,36.25
2018-05-10T15:20:14.067Z,36.90
2018-05-10T15:21:49.122Z,36.03
2018-05-10T15:23:24.223Z,36.70
2018-05-10T15:24:59.284Z,36.22
2018-05-10T15:26:34.420Z,36.32
2018-05-10T15:28:09.490Z,36.42
2018-05-10T15:29:44.611Z,36.85
2018-05-10T15:31:19.735Z,36.99
2018-05-10T15:32:56.045Z,36.71
2018-05-10T15:34:31.105Z,36.12
2018-05-10T15:36:06.206Z,35.56
2018-05-10T15:37:41.248Z,35.04
2018-05-10T15:39:18.267Z,35.07
2018-05-10T15:40:53.320Z,35.86
2018-05-10T15:42:28.958Z,35.96
2018-05-10T15:44:04.024Z,36.12
2018-05-10T15:45:39.219Z,35.84
2018-05-10T15:47:14.304Z,36.21
2018-05-10T15:48:49.405Z,36.48
2018-05-10T15:50:24.473Z,36.42
2018-05-10T15:51:59.527Z,36.58
2018-05-10T15:53:34.597Z,36.21
2018-05-10T15:55:10.126Z,36.18
2018-05-10T15:56:45.246Z,35.79
2018-05-10T15:58:20.301Z,35.77
2018-05-10T15:59:55.711Z,35.51
2018-05-10T16:01:30.832Z,35.02
2018-05-10T16:03:05.881Z,34.93
2018-05-10T16:04:40.933Z,34.83
2018-05-10T16:06:16.243Z,34.58
2018-05-10T16:07:51.371Z,34.52
2018-05-10T16:09:26.450Z,34.14
2018-05-10T16:11:01.513Z,34.40
2018-05-10T16:12:36.699Z,35.68
2018-05-10T16:14:11.795Z,36.37
2018-05-10T16:15:46.856Z,37.31
2018-05-10T16:17:21.904Z,38.00
2018-05-10T16:18:57.052Z,38.00
2018-05-10T16:20:32.125Z,38.26
2018-05-10T16:22:08.233Z,39.66
2018-05-10T16:23:44.843Z,39.54
2018-05-10T16:25:19.908Z,39.82
2018-05-10T16:26:55.046Z,39.97
2018-05-10T16:28:30.100Z,39.92
2018-05-10T16:30:05.959Z,40.27
2018-05-10T16:31:41.038Z,40.35
2018-05-10T16:33:16.115Z,41.01
2018-05-10T16:34:51.308Z,41.66
2018-05-10T16:36:27.433Z,41.43
2018-05-10T16:38:02.584Z,41.40
2018-05-10T16:39:37.640Z,41.89
2018-05-10T16:41:12.743Z,42.00
2018-05-10T16:42:47.816Z,42.39
2018-05-10T16:44:22.909Z,42.84
2018-05-10T16:45:58.001Z,42.46
2018-05-10T16:47:33.051Z,42.44
2018-05-10T16:49:08.159Z,42.40
2018-05-10T16:50:43.216Z,42.18
2018-05-10T16:52:19.039Z,42.16
2018-05-10T16:53:54.096Z,41.92
2018-05-10T16:55:29.199Z,41.64
2018-05-10T16:57:04.245Z,41.63
2018-05-10T16:58:39.310Z,41.98
2018-05-10T17:00:14.404Z,41.54
2018-05-10T17:01:49.484Z,41.98
2018-05-10T17:03:24.540Z,41.64
2018-05-10T17:04:59.664Z,42.13
2018-05-10T17:06:35.485Z,42.83
2018-05-10T17:08:10.537Z,43.29
2018-05-10T17:09:46.383Z,43.43
2018-05-10T17:11:21.476Z,43.79
2018-05-10T17:12:56.524Z,44.20
2018-05-10T17:14:31.613Z,44.72
2018-05-10T17:16:10.110Z,45.01
2018-05-10T17:17:45.179Z,44.93
2018-05-10T17:19:20.240Z,45.11
2018-05-10T17:20:55.365Z,45.17
2018-05-10T17:22:30.542Z,45.92
2018-05-10T17:24:05.902Z,47.57
2018-05-10T17:25:41.176Z,48.59
2018-05-10T17:27:16.295Z,48.87
2018-05-10T17:28:51.489Z,48.60
2018-05-10T17:30:26.570Z,48.75
2018-05-10T17:32:01.854Z,48.73
2018-05-10T17:33:37.214Z,50.08
2018-05-10T17:35:12.324Z,50.25
2018-05-10T17:36:47.981Z,50.38
2018-05-10T17:38:25.199Z,50.01
2018-05-10T17:40:00.264Z,50.36
2018-05-10T17:41:35.534Z,50.35
2018-05-10T17:43:10.612Z,50.78
2018-05-10T17:44:45.692Z,50.78
2018-05-10T17:46:20.744Z,51.02
2018-05-10T17:47:55.830Z,51.11
2018-05-10T17:49:30.891Z,51.53
2018-05-10T17:51:06.771Z,52.06
2018-05-10T17:52:41.862Z,52.52
2018-05-10T17:54:16.922Z,53.20
2018-05-10T17:55:52.004Z,53.95
2018-05-10T17:57:27.084Z,54.69
2018-05-10T17:59:02.134Z,55.07
2018-05-10T18:00:37.228Z,55.38
2018-05-10T18:02:12.322Z,55.80
2018-05-10T18:03:47.406Z,56.31
2018-05-10T18:05:23.254Z,57.28
2018-05-10T18:06:58.321Z,57.52
2018-05-10T18:08:33.561Z,57.62
2018-05-10T18:10:14.662Z,58.56
2018-05-10T18:11:51.041Z,59.47
2018-05-10T18:13:26.140Z,59.55
2018-05-10T18:15:01.592Z,59.41
2018-05-10T18:16:37.210Z,59.88
2018-05-10T18:18:13.349Z,60.20
2018-05-10T18:19:49.914Z,60.50
2018-05-10T18:21:26.139Z,60.56
2018-05-10T18:23:01.748Z,60.62
2018-05-10T18:24:36.817Z,61.16
2018-05-10T18:26:12.567Z,61.55
2018-05-10T18:27:50.430Z,62.07
2018-05-10T18:29:27.253Z,62.21
2018-05-10T18:31:02.380Z,63.11
2018-05-10T18:32:37.525Z,63.32
2018-05-10T18:34:14.934Z,63.89
2018-05-10T18:35:50.342Z,64.69
2018-05-10T18:37:25.417Z,64.86
2018-05-10T18:39:00.488Z,64.81
2018-05-10T18:40:35.555Z,64.22
2018-05-10T18:42:10.699Z,64.15
2018-05-10T18:43:45.767Z,64.08
2018-05-10T18:45:21.590Z,63.80
2018-05-10T18:46:56.646Z,64.52
2018-05-10T18:48:31.762Z,65.00
2018-05-10T18:50:08.462Z,64.95
2018-05-10T18:51:46.415Z,64.42
2018-05-10T18:53:22.157Z,63.75
2018-05-10T18:54:58.964Z,64.14
2018-05-10T18:56:34.900Z,63.94
2018-05-10T18:58:11.293Z,63.70
2018-05-10T18:59:46.401Z,63.74
2018-05-10T19:01:21.474Z,64.00
2018-05-10T19:02:56.538Z,64.00
2018-05-10T19:04:31.600Z,64.50
2018-05-10T19:06:06.692Z,64.66
2018-05-10T19:07:41.754Z,64.17
2018-05-10T19:09:17.620Z,64.23
2018-05-10T19:10:52.684Z,63.90
2018-05-10T19:12:27.795Z,63.32
2018-05-10T19:14:05.793Z,63.93
2018-05-10T19:15:41.418Z,64.04
2018-05-10T19:17:17.489Z,63.62
2018-05-10T19:18:52.535Z,63.61
2018-05-10T19:20:27.714Z,63.70
2018-05-10T19:22:02.962Z,63.54
2018-05-10T19:23:39.938Z,63.06
2018-05-10T19:25:15.811Z,63.22
2018-05-10T19:26:51.073Z,63.54
2018-05-10T19:28:26.151Z,63.25
2018-05-10T19:30:01.303Z,63.97
2018-05-10T19:31:36.617Z,64.17
2018-05-10T19:33:12.574Z,64.04
2018-05-10T19:34:48.808Z,64.49
2018-05-10T19:36:23.956Z,64.35
2018-05-10T19:37:59.637Z,64.61
2018-05-10T19:39:34.970Z,65.21
2018-05-10T19:41:10.729Z,65.12
2018-05-10T19:42:45.820Z,65.12
2018-05-10T19:44:21.760Z,65.38
2018-05-10T19:45:56.870Z,65.39
2018-05-10T19:47:38.786Z,65.43
2018-05-10T19:49:13.865Z,65.27
2018-05-10T19:50:49.684Z,65.12
2018-05-10T19:52:24.849Z,65.13
2018-05-10T19:53:59.902Z,64.80
2018-05-10T19:55:38.232Z,64.33
2018-05-10T19:57:14.137Z,64.19
2018-05-10T19:58:49.946Z,63.87
2018-05-10T20:00:25.157Z,63.81
2018-05-10T20:02:00.633Z,63.61
2018-05-10T20:03:35.788Z,64.35
2018-05-10T20:05:10.910Z,64.67
2018-05-10T20:06:46.345Z,64.51
2018-05-10T20:08:21.537Z,64.38
2018-05-10T20:09:57.424Z,64.56
2018-05-10T20:11:32.552Z,64.72
2018-05-10T20:13:09.675Z,64.53
2018-05-10T20:14:44.764Z,64.19
2018-05-10T20:16:19.940Z,64.01
2018-05-10T20:17:55.237Z,64.49
2018-05-10T20:19:30.340Z,64.36
2018-05-10T20:21:05.441Z,64.20
2018-05-10T20:22:40.591Z,63.83
2018-05-10T20:24:16.533Z,63.76
2018-05-10T20:25:52.337Z,64.37
2018-05-10T20:27:27.441Z,64.27
2018-05-10T20:29:02.573Z,64.50
2018-05-10T20:30:38.403Z,64.81
2018-05-10T20:32:13.658Z,65.55
2018-05-10T20:33:49.582Z,65.71
2018-05-10T20:35:25.852Z,65.60
2018-05-10T20:37:01.657Z,65.35
2018-05-10T20:38:37.634Z,65.16
2018-05-10T20:40:13.605Z,65.16
2018-05-10T20:41:48.759Z,65.25
2018-05-10T20:43:23.879Z,65.87
2018-05-10T20:44:59.426Z,66.03
2018-05-10T20:46:34.525Z,66.14
2018-05-10T20:48:12.891Z,66.35
2018-05-10T20:49:49.046Z,66.41
2018-05-10T20:51:24.173Z,66.40
2018-05-10T20:53:00.136Z,66.62
2018-05-10T20:54:35.210Z,66.82
2018-05-10T20:56:10.370Z,66.58
2018-05-10T20:57:47.280Z,66.86
2018-05-10T20:59:22.455Z,66.25
2018-05-10T21:00:57.550Z,66.34
2018-05-10T21:02:32.664Z,65.98
2018-05-10T21:04:08.529Z,65.82
2018-05-10T21:05:43.653Z,66.04
2018-05-10T21:07:18.811Z,65.81
2018-05-10T21:08:53.972Z,65.90
2018-05-10T21:10:29.633Z,65.65
2018-05-10T21:12:04.778Z,66.06
2018-05-10T21:13:39.904Z,66.42
2018-05-10T21:15:14.982Z,65.97
2018-05-10T21:16:50.069Z,65.93
2018-05-10T21:18:25.243Z,66.20
2018-05-10T21:20:00.382Z,66.96
2018-05-10T21:21:35.507Z,66.68
2018-05-10T21:23:11.282Z,66.88
2018-05-10T21:24:46.385Z,66.86
2018-05-10T21:26:21.469Z,67.25
2018-05-10T21:27:56.615Z,67.57
2018-05-10T21:29:37.351Z,66.78
2018-05-10T21:31:18.435Z,66.81
2018-05-10T21:32:54.426Z,68.13
2018-05-10T21:34:30.268Z,67.93
2018-05-10T21:36:05.455Z,68.35
2018-05-10T21:37:40.557Z,67.65
2018-05-10T21:39:15.688Z,67.18
2018-05-10T21:40:50.782Z,67.50
2018-05-10T21:42:25.895Z,67.71
2018-05-10T21:44:01.076Z,67.55
2018-05-10T21:45:36.223Z,67.61
2018-05-10T21:47:11.898Z,67.32
2018-05-10T21:48:47.060Z,67.85
2018-05-10T21:50:28.826Z,66.96
2018-05-10T21:52:03.927Z,66.76
2018-05-10T21:53:39.800Z,66.66
2018-05-10T21:55:16.156Z,67.63
2018-05-10T21:56:51.286Z,68.05
2018-05-10T21:58:26.468Z,68.03
2018-05-10T22:00:01.566Z,67.57
2018-05-10T22:01:36.663Z,67.96
2018-05-10T22:03:11.775Z,67.62
2018-05-10T22:04:46.905Z,67.25
2018-05-10T22:06:22.060Z,67.29
2018-05-10T22:07:57.149Z,67.01
2018-05-10T22:09:32.252Z,67.58
2018-05-10T22:11:07.349Z,67.38
2018-05-10T22:12:42.543Z,67.11
2018-05-10T22:14:18.870Z,67.54
2018-05-10T22:15:55.918Z,67.40
2018-05-10T22:17:31.076Z,66.88
2018-05-10T22:19:06.846Z,67.45
2018-05-10T22:20:42.724Z,67.16
2018-05-10T22:22:17.877Z,67.88
2018-05-10T22:23:53.777Z,67.25
2018-05-10T22:25:29.781Z,67.60
2018-05-10T22:27:05.643Z,67.91
2018-05-10T22:28:41.570Z,68.40
2018-05-10T22:30:16.695Z,68.50
2018-05-10T22:31:51.833Z,69.00
2018-05-10T22:33:26.991Z,67.90
2018-05-10T22:35:02.170Z,67.97
2018-05-10T22:36:37.170Z,67.87
2018-05-10T22:38:12.238Z,67.93
2018-05-10T22:39:47.371Z,79.79
2018-05-10T22:41:22.443Z,70.80
2018-05-10T22:42:57.508Z,70.36
2018-05-10T22:44:32.611Z,69.53
2018-05-10T22:46:07.717Z,70.01
2018-05-10T22:47:42.832Z,69.50
2018-05-10T22:49:17.948Z,69.45
2018-05-10T22:50:53.038Z,68.84
2018-05-10T22:52:28.161Z,69.06
2018-05-10T22:54:03.269Z,68.86
2018-05-10T22:55:38.369Z,68.88
2018-05-10T22:57:13.475Z,69.48
2018-05-10T22:58:48.554Z,68.97
2018-05-10T23:00:24.411Z,68.74
2018-05-10T23:01:59.524Z,68.63
2018-05-10T23:03:34.573Z,68.69
2018-05-10T23:05:09.701Z,69.18
2018-05-10T23:06:44.811Z,68.58
2018-05-10T23:08:20.655Z,68.58
2018-05-10T23:09:55.808Z,69.27
2018-05-10T23:11:30.879Z,69.79
2018-05-10T23:13:05.942Z,69.66
2018-05-10T23:14:41.174Z,69.70
2018-05-10T23:16:17.037Z,69.65
2018-05-10T23:17:52.131Z,69.38
2018-05-10T23:19:27.994Z,69.30
2018-05-10T23:21:03.106Z,69.32
2018-05-10T23:22:38.201Z,68.87
2018-05-10T23:24:13.305Z,69.36
2018-05-10T23:25:48.414Z,69.94
2018-05-10T23:27:23.491Z,69.49
2018-05-10T23:28:58.589Z,69.27
2018-05-10T23:30:33.650Z,69.34
2018-05-10T23:32:08.754Z,69.12
2018-05-10T23:33:44.803Z,69.18
2018-05-10T23:35:19.922Z,69.22
2018-05-10T23:36:55.829Z,68.95
2018-05-10T23:38:31.008Z,68.52
2018-05-10T23:40:06.140Z,68.29